Time;durP1;ratioP1;P1;durP2;ratioP2;P2;SDS_P1;SDS_P2;PMS_P1;PMS_P2;Temp;Humidity;BMP_temperature;BMP_pressure;BME280_temperature;BME280_humidity;BME280_pressure;Samples;Min_cycle;Max_cycle;Signal;HPM_P1;HPM_P2
2021/05/23 00:00:15;;;;;;;1.70;0.77;;;;;;;;;;5012327;28;20104;-69
2021/05/23 00:02:42;;;;;;;1.08;0.60;;;;;;;;;;5012248;28;20100;-69
2021/05/23 00:05:12;;;;;;;3.42;1.25;;;;;;;;;;5012074;28;20096;-69
2021/05/23 00:07:48;;;;;;;2.05;0.80;;;;;;;;;;5012147;28;20053;-69
2021/05/23 00:10:16;;;;;;;1.60;1.05;;;;;;;;;;5010914;28;20085;-70
2021/05/23 00:12:43;;;;;;;1.17;0.88;;;;;;;;;;5011928;28;20081;-70
2021/05/23 00:15:11;;;;;;;1.55;0.80;;;;;;;;;;5011968;28;20394;-68
2021/05/23 00:17:38;;;;;;;2.45;1.08;;;;;;;;;;5011948;28;20080;-69
2021/05/23 00:20:07;;;;;;;1.67;0.90;;;;;;;;;;5012154;28;20119;-69
2021/05/23 00:22:33;;;;;;;3.38;1.25;;;;;;;;;;5012011;28;20100;-69
2021/05/23 00:25:00;;;;;;;1.80;0.98;;;;;;;;;;5011940;28;20116;-69
2021/05/23 00:27:27;;;;;;;2.67;0.88;;;;;;;;;;5011686;28;20119;-69
2021/05/23 00:29:53;;;;;;;1.58;0.90;;;;;;;;;;5011953;28;20054;-69
2021/05/23 00:32:20;;;;;;;2.60;1.30;;;;;;;;;;5011713;28;20078;-69
2021/05/23 00:34:46;;;;;;;3.45;1.17;;;;;;;;;;5012034;28;20477;-69
2021/05/23 00:37:13;;;;;;;0.88;0.77;;;;;;;;;;5011444;28;20054;-69
2021/05/23 00:39:39;;;;;;;1.40;0.80;;;;;;;;;;5012250;28;20073;-69
2021/05/23 00:42:09;;;;;;;4.07;0.82;;;;;;;;;;5011640;28;20083;-68
2021/05/23 00:44:35;;;;;;;1.77;0.93;;;;;;;;;;5011875;28;20045;-69
2021/05/23 00:47:02;;;;;;;1.38;1.20;;;;;;;;;;5011566;28;20096;-69
2021/05/23 00:49:29;;;;;;;1.42;1.20;;;;;;;;;;5011555;28;20566;-69
2021/05/23 00:51:55;;;;;;;1.10;1.00;;;;;;;;;;5011613;28;20053;-70
2021/05/23 00:54:22;;;;;;;1.90;0.80;;;;;;;;;;5011879;28;20066;-69
2021/05/23 00:56:48;;;;;;;1.33;0.82;;;;;;;;;;5011499;28;20100;-69
2021/05/23 00:59:16;;;;;;;2.45;0.88;;;;;;;;;;5013102;28;20076;-69
2021/05/23 01:01:45;;;;;;;1.20;1.10;;;;;;;;;;5015568;28;20057;-69
2021/05/23 01:04:11;;;;;;;2.88;0.68;;;;;;;;;;5015337;28;20054;-69
2021/05/23 01:06:38;;;;;;;1.70;1.00;;;;;;;;;;5015386;28;20054;-69
2021/05/23 01:09:09;;;;;;;1.25;1.00;;;;;;;;;;5015243;28;20099;-69
2021/05/23 01:12:13;;;;;;;4.47;1.10;;;;;;;;;;5015356;28;20508;-69
2021/05/23 01:14:47;;;;;;;1.60;0.80;;;;;;;;;;5015340;28;20042;-69
2021/05/23 01:17:14;;;;;;;4.65;0.90;;;;;;;;;;5013850;28;20139;-69
2021/05/23 01:20:02;;;;;;;3.42;0.88;;;;;;;;;;5015173;28;20181;-69
2021/05/23 01:22:48;;;;;;;1.67;0.70;;;;;;;;;;5015305;28;20567;-68
2021/05/23 01:25:20;;;;;;;1.30;0.98;;;;;;;;;;5014965;28;20045;-69
2021/05/23 01:27:49;;;;;;;1.13;0.80;;;;;;;;;;5014999;28;20081;-69
2021/05/23 01:30:19;;;;;;;2.50;0.98;;;;;;;;;;5013785;28;20057;-69
2021/05/23 01:32:47;;;;;;;2.88;0.80;;;;;;;;;;5014817;28;20046;-69
2021/05/23 01:35:17;;;;;;;2.13;0.60;;;;;;;;;;5014815;28;20076;-69
2021/05/23 01:37:52;;;;;;;2.30;0.75;;;;;;;;;;5015019;28;20452;-69
2021/05/23 01:40:19;;;;;;;1.77;0.60;;;;;;;;;;5014782;28;20111;-68
2021/05/23 01:42:46;;;;;;;1.00;0.60;;;;;;;;;;5014596;28;20046;-71
2021/05/23 01:45:14;;;;;;;1.77;0.50;;;;;;;;;;5013462;28;20100;-72
2021/05/23 01:47:40;;;;;;;1.67;0.60;;;;;;;;;;5013203;28;20180;-71
2021/05/23 01:50:07;;;;;;;1.42;0.65;;;;;;;;;;5013419;28;20108;-72
2021/05/23 01:52:34;;;;;;;1.08;0.50;;;;;;;;;;5014562;28;20053;-72
2021/05/23 01:55:01;;;;;;;4.63;0.70;;;;;;;;;;5014591;28;20467;-72
2021/05/23 01:57:27;;;;;;;2.25;0.68;;;;;;;;;;5013141;28;20058;-71
2021/05/23 01:59:55;;;;;;;0.60;0.40;;;;;;;;;;5014684;28;20052;-71
2021/05/23 02:02:21;;;;;;;1.55;0.82;;;;;;;;;;5014352;28;20065;-71
2021/05/23 02:04:48;;;;;;;1.83;0.70;;;;;;;;;;5014564;28;20457;-71
2021/05/23 02:07:14;;;;;;;1.17;0.60;;;;;;;;;;5012872;28;20429;-71
2021/05/23 02:09:41;;;;;;;1.38;0.50;;;;;;;;;;5011983;28;20085;-71
2021/05/23 02:12:07;;;;;;;0.52;0.50;;;;;;;;;;5012601;28;20082;-71
2021/05/23 02:14:34;;;;;;;1.15;0.73;;;;;;;;;;5014260;28;20046;-72
2021/05/23 02:17:00;;;;;;;1.27;0.40;;;;;;;;;;5013745;28;20073;-72
2021/05/23 02:19:27;;;;;;;2.05;0.63;;;;;;;;;;5014179;28;20050;-71
2021/05/23 02:21:54;;;;;;;2.08;0.70;;;;;;;;;;5014105;28;20468;-72
2021/05/23 02:24:20;;;;;;;2.40;0.60;;;;;;;;;;5014050;28;20069;-71
2021/05/23 02:26:47;;;;;;;2.60;0.73;;;;;;;;;;5013841;28;20050;-72
2021/05/23 02:29:15;;;;;;;0.43;0.43;;;;;;;;;;5013820;28;20053;-71
2021/05/23 02:31:41;;;;;;;0.82;0.50;;;;;;;;;;5013859;28;20053;-71
2021/05/23 02:34:08;;;;;;;1.25;0.70;;;;;;;;;;5013581;28;20068;-72
2021/05/23 02:36:34;;;;;;;2.95;0.80;;;;;;;;;;5013822;28;20184;-72
2021/05/23 02:39:01;;;;;;;3.42;0.95;;;;;;;;;;5013616;28;20084;-71
2021/05/23 02:41:27;;;;;;;1.45;0.80;;;;;;;;;;5013684;28;20104;-72
2021/05/23 02:43:54;;;;;;;2.53;0.60;;;;;;;;;;5013705;28;20046;-73
2021/05/23 02:46:20;;;;;;;2.05;0.60;;;;;;;;;;5013322;28;20132;-71
2021/05/23 02:48:47;;;;;;;2.55;1.13;;;;;;;;;;5013447;28;20046;-72
2021/05/23 02:51:13;;;;;;;2.05;1.13;;;;;;;;;;5013570;28;20057;-71
2021/05/23 02:53:40;;;;;;;2.90;1.38;;;;;;;;;;5013590;28;20421;-71
2021/05/23 02:56:07;;;;;;;1.42;0.70;;;;;;;;;;5013237;28;20081;-71
2021/05/23 02:58:34;;;;;;;3.03;1.13;;;;;;;;;;5013384;28;20050;-71
2021/05/23 03:01:00;;;;;;;2.00;0.90;;;;;;;;;;5013123;28;20506;-72
2021/05/23 03:03:27;;;;;;;0.70;0.70;;;;;;;;;;5013452;28;20463;-71
2021/05/23 03:05:53;;;;;;;1.80;0.73;;;;;;;;;;5013164;28;20555;-71
2021/05/23 03:08:20;;;;;;;1.42;0.77;;;;;;;;;;5013178;28;20489;-72
2021/05/23 03:10:52;;;;;;;1.05;0.68;;;;;;;;;;5013216;28;20073;-71
2021/05/23 03:13:19;;;;;;;2.47;0.77;;;;;;;;;;5012959;28;20050;-71
2021/05/23 03:15:45;;;;;;;0.70;0.50;;;;;;;;;;5012783;28;20054;-70
2021/05/23 03:18:12;;;;;;;2.42;0.55;;;;;;;;;;5013019;28;20054;-71
2021/05/23 03:20:41;;;;;;;1.00;0.40;;;;;;;;;;5012820;28;20332;-72
2021/05/23 03:23:07;;;;;;;1.20;0.38;;;;;;;;;;5013035;28;20073;-71
2021/05/23 03:25:34;;;;;;;1.00;0.40;;;;;;;;;;5012588;28;20056;-71
2021/05/23 03:28:01;;;;;;;1.55;0.38;;;;;;;;;;5011693;28;20084;-71
2021/05/23 03:30:32;;;;;;;0.32;0.32;;;;;;;;;;5012980;28;20054;-71
2021/05/23 03:32:58;;;;;;;1.58;0.60;;;;;;;;;;5046657;22;20017;-73
2021/05/23 03:35:25;;;;;;;0.95;0.50;;;;;;;;;;5031172;28;20470;-71
2021/05/23 03:37:52;;;;;;;0.65;0.40;;;;;;;;;;5031411;28;20101;-74
2021/05/23 03:40:19;;;;;;;1.40;0.50;;;;;;;;;;5015105;28;20053;-71
2021/05/23 03:42:47;;;;;;;2.05;0.35;;;;;;;;;;5031125;28;20049;-71
2021/05/23 03:45:16;;;;;;;0.35;0.30;;;;;;;;;;5031219;28;20666;-71
2021/05/23 03:47:43;;;;;;;0.80;0.50;;;;;;;;;;5015001;28;20123;-72
2021/05/23 03:50:11;;;;;;;0.85;0.57;;;;;;;;;;5031145;28;20495;-71
2021/05/23 03:52:38;;;;;;;0.68;0.40;;;;;;;;;;5047627;28;20507;-72
2021/05/23 03:55:06;;;;;;;0.80;0.80;;;;;;;;;;5031093;28;20049;-72
2021/05/23 03:57:32;;;;;;;3.00;0.60;;;;;;;;;;5047488;28;20049;-73
2021/05/23 04:00:00;;;;;;;0.70;0.70;;;;;;;;;;5047363;28;20045;-71
2021/05/23 04:02:26;;;;;;;1.75;0.68;;;;;;;;;;5031454;28;20046;-71
2021/05/23 04:04:56;;;;;;;0.82;0.40;;;;;;;;;;5030829;28;20053;-72
2021/05/23 04:07:25;;;;;;;0.55;0.50;;;;;;;;;;5046621;28;20135;-72
2021/05/23 04:09:53;;;;;;;0.40;0.40;;;;;;;;;;5031037;28;20049;-72
2021/05/23 04:12:28;;;;;;;1.17;0.57;;;;;;;;;;5030839;28;20057;-72
2021/05/23 04:14:55;;;;;;;0.75;0.40;;;;;;;;;;5045940;28;20045;-72
2021/05/23 04:17:22;;;;;;;0.47;0.47;;;;;;;;;;5030560;28;20079;-72
2021/05/23 04:19:48;;;;;;;0.82;0.60;;;;;;;;;;5031948;28;20053;-72
2021/05/23 04:22:15;;;;;;;0.40;0.38;;;;;;;;;;5030988;28;20471;-74
2021/05/23 04:24:42;;;;;;;2.85;0.50;;;;;;;;;;5030158;28;20573;-73
2021/05/23 04:27:08;;;;;;;1.35;0.70;;;;;;;;;;5014118;28;20065;-72
2021/05/23 04:29:35;;;;;;;0.95;0.55;;;;;;;;;;5047101;28;20423;-72
2021/05/23 04:32:04;;;;;;;2.28;1.35;;;;;;;;;;5047078;28;20053;-73
2021/05/23 04:34:31;;;;;;;0.95;0.60;;;;;;;;;;5031059;28;20080;-73
2021/05/23 04:36:57;;;;;;;2.25;0.52;;;;;;;;;;5030271;28;20065;-74
2021/05/23 04:39:24;;;;;;;2.20;0.70;;;;;;;;;;5047135;28;20115;-73
2021/05/23 04:41:50;;;;;;;0.73;0.38;;;;;;;;;;5047079;28;20046;-73
2021/05/23 04:44:17;;;;;;;0.43;0.43;;;;;;;;;;5046575;28;20045;-72
2021/05/23 04:46:44;;;;;;;2.08;0.95;;;;;;;;;;5014132;28;20095;-73
2021/05/23 04:49:10;;;;;;;1.85;0.50;;;;;;;;;;5031531;28;20080;-73
2021/05/23 04:51:37;;;;;;;0.75;0.50;;;;;;;;;;5014092;28;20084;-73
2021/05/23 04:54:04;;;;;;;1.33;0.52;;;;;;;;;;5030286;28;20393;-73
2021/05/23 04:56:30;;;;;;;0.43;0.40;;;;;;;;;;5013991;28;20050;-72
2021/05/23 04:58:57;;;;;;;1.67;0.40;;;;;;;;;;5046813;28;20095;-72
2021/05/23 05:01:24;;;;;;;1.38;0.50;;;;;;;;;;5026852;28;20081;-72
2021/05/23 05:03:51;;;;;;;1.15;0.50;;;;;;;;;;4994516;28;20050;-72
2021/05/23 05:06:17;;;;;;;1.45;0.55;;;;;;;;;;5030457;28;20057;-72
2021/05/23 05:08:46;;;;;;;0.57;0.35;;;;;;;;;;5046805;28;20053;-72
2021/05/23 05:11:12;;;;;;;1.45;0.80;;;;;;;;;;5030200;28;20057;-73
2021/05/23 05:13:40;;;;;;;0.52;0.50;;;;;;;;;;5031150;28;20045;-72
2021/05/23 05:16:08;;;;;;;0.82;0.50;;;;;;;;;;5030328;28;20050;-73
2021/05/23 05:18:37;;;;;;;1.33;0.60;;;;;;;;;;5030394;28;20053;-73
2021/05/23 05:21:04;;;;;;;1.27;0.40;;;;;;;;;;5030117;28;20057;-72
2021/05/23 05:23:31;;;;;;;1.02;0.75;;;;;;;;;;5013693;28;20046;-72
2021/05/23 05:26:00;;;;;;;2.88;0.57;;;;;;;;;;5046335;28;20499;-73
2021/05/23 05:28:27;;;;;;;0.98;0.60;;;;;;;;;;5031335;28;20107;-72
2021/05/23 05:30:54;;;;;;;0.50;0.50;;;;;;;;;;5031426;28;20053;-72
2021/05/23 05:33:20;;;;;;;2.53;0.40;;;;;;;;;;5046340;28;20053;-72
2021/05/23 05:35:47;;;;;;;2.47;1.10;;;;;;;;;;5030045;28;20107;-73
2021/05/23 05:38:14;;;;;;;1.00;0.57;;;;;;;;;;5046517;28;20049;-72
2021/05/23 05:40:41;;;;;;;2.35;0.40;;;;;;;;;;5031298;28;20053;-72
2021/05/23 05:43:08;;;;;;;1.02;0.57;;;;;;;;;;5029683;28;20419;-73
2021/05/23 05:45:34;;;;;;;0.40;0.35;;;;;;;;;;5033185;28;20404;-72
2021/05/23 05:48:01;;;;;;;2.85;0.50;;;;;;;;;;5034673;28;20053;-73
2021/05/23 05:50:27;;;;;;;0.63;0.55;;;;;;;;;;5034706;28;20103;-72
2021/05/23 05:52:54;;;;;;;2.65;0.60;;;;;;;;;;5034152;28;20045;-73
2021/05/23 05:55:21;;;;;;;2.08;0.60;;;;;;;;;;5048017;28;20103;-72
2021/05/23 05:57:47;;;;;;;0.95;0.57;;;;;;;;;;5032409;28;20053;-74
2021/05/23 06:00:14;;;;;;;1.77;0.70;;;;;;;;;;5031294;28;20111;-73
2021/05/23 06:02:41;;;;;;;2.15;0.80;;;;;;;;;;5032300;28;20462;-73
2021/05/23 06:05:08;;;;;;;2.65;0.82;;;;;;;;;;5047478;28;20180;-75
2021/05/23 06:07:34;;;;;;;2.55;0.57;;;;;;;;;;5030674;28;20478;-76
2021/05/23 06:10:03;;;;;;;1.67;0.40;;;;;;;;;;5031033;28;20568;-74
2021/05/23 06:12:29;;;;;;;2.47;0.47;;;;;;;;;;5031301;28;20167;-74
2021/05/23 06:14:56;;;;;;;1.35;0.65;;;;;;;;;;5031891;28;20045;-74
2021/05/23 06:17:22;;;;;;;1.45;0.80;;;;;;;;;;5030704;28;20057;-75
2021/05/23 06:19:49;;;;;;;0.57;0.38;;;;;;;;;;5032166;28;20516;-75
2021/05/23 06:22:16;;;;;;;5.32;0.80;;;;;;;;;;5030373;28;20099;-76
2021/05/23 06:24:42;;;;;;;3.03;0.60;;;;;;;;;;5030903;28;20053;-74
2021/05/23 06:27:09;;;;;;;3.35;0.65;;;;;;;;;;5014131;28;20061;-74
2021/05/23 06:29:35;;;;;;;4.38;1.95;;;;;;;;;;5032199;28;20494;-74
2021/05/23 06:32:02;;;;;;;3.00;1.00;;;;;;;;;;5030573;28;20057;-77
2021/05/23 06:34:30;;;;;;;3.00;1.33;;;;;;;;;;5030017;28;20052;-73
2021/05/23 06:36:57;;;;;;;2.40;1.05;;;;;;;;;;5013905;28;20061;-73
2021/05/23 06:39:23;;;;;;;2.10;0.55;;;;;;;;;;5030593;28;20110;-74
2021/05/23 06:41:50;;;;;;;1.00;0.60;;;;;;;;;;5046842;28;20121;-76
2021/05/23 06:44:18;;;;;;;1.77;0.70;;;;;;;;;;5046781;28;20061;-75
2021/05/23 06:46:45;;;;;;;2.47;0.65;;;;;;;;;;5013574;28;20053;-76
2021/05/23 06:49:13;;;;;;;1.63;0.60;;;;;;;;;;5030398;28;20053;-74
2021/05/23 06:51:39;;;;;;;1.23;0.47;;;;;;;;;;5046916;28;20057;-75
2021/05/23 06:54:06;;;;;;;1.50;0.68;;;;;;;;;;5030077;28;20041;-75
2021/05/23 06:56:33;;;;;;;1.15;0.45;;;;;;;;;;5030619;28;20061;-74
2021/05/23 06:59:00;;;;;;;0.80;0.50;;;;;;;;;;5031311;28;20101;-74
2021/05/23 07:01:26;;;;;;;5.43;1.63;;;;;;;;;;5029708;28;20474;-76
2021/05/23 07:03:53;;;;;;;1.08;0.40;;;;;;;;;;5029888;28;20053;-77
2021/05/23 07:06:19;;;;;;;1.70;0.47;;;;;;;;;;4997423;28;20057;-76
2021/05/23 07:08:46;;;;;;;1.83;0.55;;;;;;;;;;5030279;28;20054;-76
2021/05/23 07:11:13;;;;;;;5.85;0.95;;;;;;;;;;5040321;28;20053;-76
2021/05/23 07:13:40;;;;;;;0.95;0.60;;;;;;;;;;5023491;28;20496;-73
2021/05/23 07:16:07;;;;;;;2.95;0.60;;;;;;;;;;5037479;28;20045;-73
2021/05/23 07:18:34;;;;;;;1.25;0.75;;;;;;;;;;5037964;28;20053;-74
2021/05/23 07:21:01;;;;;;;1.73;0.75;;;;;;;;;;5035641;28;20053;-75
2021/05/23 07:23:28;;;;;;;2.00;0.47;;;;;;;;;;5037071;28;20103;-72
2021/05/23 07:25:55;;;;;;;0.50;0.40;;;;;;;;;;5021797;28;20459;-72
2021/05/23 07:28:22;;;;;;;1.65;0.60;;;;;;;;;;5038323;28;20107;-73
2021/05/23 07:30:48;;;;;;;2.15;0.85;;;;;;;;;;5022439;28;20045;-73
2021/05/23 07:33:15;;;;;;;1.80;0.85;;;;;;;;;;5054607;28;20052;-73
2021/05/23 07:35:42;;;;;;;2.45;0.50;;;;;;;;;;5020203;28;20045;-72
2021/05/23 07:38:10;;;;;;;2.35;0.43;;;;;;;;;;5031715;28;20071;-73
2021/05/23 07:40:37;;;;;;;2.15;1.00;;;;;;;;;;5032687;28;20045;-72
2021/05/23 07:43:03;;;;;;;1.33;0.80;;;;;;;;;;5031100;28;20049;-72
2021/05/23 07:45:31;;;;;;;1.15;0.68;;;;;;;;;;5031088;28;20580;-72
2021/05/23 07:47:57;;;;;;;2.00;0.40;;;;;;;;;;5016880;28;20045;-73
2021/05/23 07:50:24;;;;;;;2.65;0.47;;;;;;;;;;5040289;28;20110;-73
2021/05/23 07:52:51;;;;;;;2.67;0.40;;;;;;;;;;5053863;28;20123;-73
2021/05/23 07:55:17;;;;;;;3.13;0.60;;;;;;;;;;5005232;28;20057;-72
2021/05/23 07:57:45;;;;;;;1.55;0.50;;;;;;;;;;5035351;28;20466;-73
2021/05/23 08:00:12;;;;;;;0.65;0.43;;;;;;;;;;5050658;28;20053;-72
2021/05/23 08:02:39;;;;;;;1.85;0.57;;;;;;;;;;5048452;28;20496;-72
2021/05/23 08:05:06;;;;;;;2.55;0.43;;;;;;;;;;5031374;28;20045;-72
2021/05/23 08:07:32;;;;;;;3.45;0.60;;;;;;;;;;5030224;28;20050;-71
2021/05/23 08:09:59;;;;;;;3.63;0.90;;;;;;;;;;5031863;28;20459;-72
2021/05/23 08:12:26;;;;;;;1.38;0.63;;;;;;;;;;5032974;28;20049;-71
2021/05/23 08:14:53;;;;;;;0.77;0.55;;;;;;;;;;5028944;28;20060;-71
2021/05/23 08:17:20;;;;;;;0.80;0.52;;;;;;;;;;5042533;28;20053;-74
2021/05/23 08:19:46;;;;;;;0.40;0.32;;;;;;;;;;5019573;28;20050;-69
2021/05/23 08:22:13;;;;;;;1.48;0.30;;;;;;;;;;5020623;28;20087;-69
2021/05/23 08:24:40;;;;;;;1.15;0.63;;;;;;;;;;5024940;28;20091;-69
2021/05/23 08:27:06;;;;;;;2.35;0.45;;;;;;;;;;5019970;28;20401;-70
2021/05/23 08:29:33;;;;;;;1.92;1.13;;;;;;;;;;5020235;28;20106;-70
2021/05/23 08:32:00;;;;;;;1.27;0.40;;;;;;;;;;5019282;28;20103;-69
2021/05/23 08:34:27;;;;;;;1.75;0.50;;;;;;;;;;5019685;28;20046;-70
2021/05/23 08:37:03;;;;;;;1.95;0.50;;;;;;;;;;5003186;28;20052;-69
2021/05/23 08:39:30;;;;;;;1.02;0.40;;;;;;;;;;5011536;28;20057;-70
2021/05/23 08:41:57;;;;;;;1.27;0.50;;;;;;;;;;5028972;28;20328;-72
2021/05/23 08:44:23;;;;;;;2.90;0.35;;;;;;;;;;5022180;28;20049;-70
2021/05/23 08:46:51;;;;;;;1.60;0.50;;;;;;;;;;4997649;28;20175;-72
2021/05/23 08:49:23;;;;;;;1.15;0.40;;;;;;;;;;5008678;28;20532;-72
2021/05/23 08:51:51;;;;;;;1.73;0.50;;;;;;;;;;5028463;28;20076;-72
2021/05/23 08:54:17;;;;;;;1.45;0.40;;;;;;;;;;5014380;28;20065;-71
2021/05/23 08:56:45;;;;;;;2.40;0.70;;;;;;;;;;5024044;28;20500;-73
2021/05/23 08:59:12;;;;;;;0.40;0.30;;;;;;;;;;5004199;28;20049;-72
2021/05/23 09:01:39;;;;;;;0.93;0.50;;;;;;;;;;5022736;28;20050;-71
2021/05/23 09:04:07;;;;;;;1.38;0.73;;;;;;;;;;5026597;28;20053;-75
2021/05/23 09:06:34;;;;;;;1.63;0.60;;;;;;;;;;5020618;28;20591;-71
2021/05/23 09:09:12;;;;;;;1.52;0.60;;;;;;;;;;5015246;28;20056;-72
2021/05/23 09:11:50;;;;;;;1.05;0.45;;;;;;;;;;5030824;28;20081;-73
2021/05/23 09:14:30;;;;;;;2.65;0.55;;;;;;;;;;5012917;28;20045;-74
2021/05/23 09:16:57;;;;;;;0.85;0.43;;;;;;;;;;5017895;28;20046;-74
2021/05/23 09:19:25;;;;;;;2.10;0.50;;;;;;;;;;5025444;28;20050;-73
2021/05/23 09:21:53;;;;;;;2.67;0.60;;;;;;;;;;5032763;28;20049;-71
2021/05/23 09:24:20;;;;;;;2.17;0.50;;;;;;;;;;5028988;28;20092;-74
2021/05/23 09:26:49;;;;;;;2.20;0.73;;;;;;;;;;5026598;28;20460;-72
2021/05/23 09:29:20;;;;;;;3.83;0.60;;;;;;;;;;5008539;28;20111;-70
2021/05/23 09:32:03;;;;;;;2.95;0.60;;;;;;;;;;5026902;28;20050;-69
2021/05/23 09:34:31;;;;;;;3.15;0.65;;;;;;;;;;5036034;23;20404;-70
2021/05/23 09:36:57;;;;;;;1.27;0.32;;;;;;;;;;4994033;28;20100;-71
2021/05/23 09:39:37;;;;;;;1.30;0.40;;;;;;;;;;4974058;28;20058;-71
2021/05/23 09:42:05;;;;;;;1.88;0.80;;;;;;;;;;4993717;28;20417;-71
2021/05/23 09:44:32;;;;;;;4.22;1.38;;;;;;;;;;4994438;28;20117;-71
2021/05/23 09:47:04;;;;;;;1.75;0.63;;;;;;;;;;4991139;28;20128;-70
2021/05/23 09:49:56;;;;;;;1.75;0.47;;;;;;;;;;4988847;28;20070;-70
2021/05/23 09:52:36;;;;;;;1.55;0.60;;;;;;;;;;4991097;28;20050;-70
2021/05/23 09:55:04;;;;;;;4.72;0.63;;;;;;;;;;4993769;28;20046;-72
2021/05/23 09:57:31;;;;;;;1.88;0.50;;;;;;;;;;4993601;28;20050;-72
2021/05/23 10:00:10;;;;;;;2.72;0.65;;;;;;;;;;4993678;28;20493;-71
2021/05/23 10:02:56;;;;;;;1.63;0.38;;;;;;;;;;4993834;28;20085;-71
2021/05/23 10:05:23;;;;;;;1.92;0.80;;;;;;;;;;4993223;28;20113;-72
2021/05/23 10:07:50;;;;;;;2.05;0.68;;;;;;;;;;4992795;28;20089;-73
2021/05/23 10:10:17;;;;;;;4.82;0.80;;;;;;;;;;4993444;28;20058;-72
2021/05/23 10:12:44;;;;;;;4.68;0.50;;;;;;;;;;4993217;28;20100;-72
2021/05/23 10:15:12;;;;;;;3.83;0.80;;;;;;;;;;4991916;28;20043;-72
2021/05/23 10:17:54;;;;;;;3.83;0.98;;;;;;;;;;4990805;28;20047;-71
2021/05/23 10:20:21;;;;;;;2.28;0.98;;;;;;;;;;4991672;28;20108;-73
2021/05/23 10:22:50;;;;;;;1.48;0.60;;;;;;;;;;4992090;28;20121;-70
2021/05/23 10:25:17;;;;;;;2.50;1.00;;;;;;;;;;4992357;28;20062;-73
2021/05/23 10:27:44;;;;;;;3.60;1.10;;;;;;;;;;4991971;28;20096;-72
2021/05/23 10:30:12;;;;;;;2.72;1.15;;;;;;;;;;5003755;28;20054;-72
2021/05/23 10:32:39;;;;;;;5.25;1.13;;;;;;;;;;4997634;28;20042;-71
2021/05/23 10:35:19;;;;;;;5.22;1.70;;;;;;;;;;4993000;28;20050;-71
2021/05/23 10:37:48;;;;;;;1.70;0.90;;;;;;;;;;4991967;28;20046;-72
2021/05/23 10:40:24;;;;;;;3.00;0.90;;;;;;;;;;5006357;28;20290;-71
2021/05/23 10:42:53;;;;;;;4.72;0.70;;;;;;;;;;4991436;28;20526;-71
2021/05/23 10:45:39;;;;;;;3.53;0.80;;;;;;;;;;4990532;28;20093;-70
2021/05/23 10:48:14;;;;;;;2.05;0.88;;;;;;;;;;4990815;28;20104;-71
2021/05/23 10:50:44;;;;;;;1.33;0.82;;;;;;;;;;4990249;28;20050;-72
2021/05/23 10:53:11;;;;;;;0.95;0.50;;;;;;;;;;4990929;28;20050;-71
2021/05/23 10:55:53;;;;;;;1.38;0.70;;;;;;;;;;4990392;28;20097;-71
2021/05/23 10:58:21;;;;;;;3.25;0.80;;;;;;;;;;4990165;28;20050;-72
2021/05/23 11:00:54;;;;;;;4.22;0.70;;;;;;;;;;4973644;28;20395;-73
2021/05/23 11:03:23;;;;;;;2.47;1.00;;;;;;;;;;4972273;28;20059;-72
2021/05/23 11:06:00;;;;;;;5.90;1.55;;;;;;;;;;4972383;28;20051;-72
2021/05/23 11:08:34;;;;;;;1.85;0.90;;;;;;;;;;4972326;28;20526;-72
2021/05/23 11:11:01;;;;;;;1.60;0.60;;;;;;;;;;4971723;28;20101;-70
2021/05/23 11:13:33;;;;;;;1.40;0.60;;;;;;;;;;4975026;28;20104;-70
2021/05/23 11:16:08;;;;;;;1.75;0.75;;;;;;;;;;4978726;28;20074;-70
2021/05/23 11:18:35;;;;;;;1.63;0.85;;;;;;;;;;4991395;28;20054;-71
2021/05/23 11:21:10;;;;;;;5.32;2.88;;;;;;;;;;4981049;28;20097;-71
2021/05/23 11:23:51;;;;;;;6.45;3.50;;;;;;;;;;4980062;28;20050;-70
2021/05/23 11:26:18;;;;;;;4.05;1.50;;;;;;;;;;4978527;28;20049;-71
2021/05/23 11:28:52;;;;;;;4.13;1.52;;;;;;;;;;4978562;28;20086;-71
2021/05/23 11:31:26;;;;;;;9.85;4.22;;;;;;;;;;4978251;28;20448;-71
2021/05/23 11:33:53;;;;;;;5.40;3.10;;;;;;;;;;4974375;28;20540;-71
2021/05/23 11:36:21;;;;;;;4.57;1.60;;;;;;;;;;4979508;28;20537;-71
2021/05/23 11:38:48;;;;;;;3.33;1.38;;;;;;;;;;4972584;28;20046;-70
2021/05/23 11:41:32;;;;;;;4.47;1.27;;;;;;;;;;4971429;28;20614;-69
2021/05/23 11:44:00;;;;;;;3.70;1.50;;;;;;;;;;4971541;28;20090;-69
2021/05/23 11:46:27;;;;;;;5.55;1.92;;;;;;;;;;4971217;28;20078;-69
2021/05/23 11:48:54;;;;;;;8.38;4.47;;;;;;;;;;4972550;28;20138;-70
2021/05/23 11:51:26;;;;;;;5.88;3.95;;;;;;;;;;4970935;28;20584;-70
2021/05/23 11:53:54;;;;;;;4.53;2.45;;;;;;;;;;4971478;28;20086;-70
2021/05/23 11:56:28;;;;;;;1.60;0.80;;;;;;;;;;4972359;28;20083;-70
2021/05/23 11:58:56;;;;;;;2.78;1.08;;;;;;;;;;4973562;28;20051;-71
2021/05/23 12:01:27;;;;;;;7.78;3.00;;;;;;;;;;4992595;28;20046;-70
2021/05/23 12:03:55;;;;;;;3.95;1.90;;;;;;;;;;4989493;28;20043;-71
2021/05/23 12:06:21;;;;;;;2.63;1.27;;;;;;;;;;4992074;28;20070;-71
2021/05/23 12:08:48;;;;;;;0.82;0.43;;;;;;;;;;4992321;28;20130;-71
2021/05/23 12:11:15;;;;;;;2.30;0.70;;;;;;;;;;4996204;28;20756;-70
2021/05/23 12:13:47;;;;;;;1.20;0.55;;;;;;;;;;5005283;28;20077;-71
2021/05/23 12:16:15;;;;;;;2.22;1.30;;;;;;;;;;5005674;28;20046;-68
2021/05/23 12:18:47;;;;;;;0.50;0.50;;;;;;;;;;5006346;28;20054;-68
2021/05/23 12:21:18;;;;;;;6.05;1.65;;;;;;;;;;5010915;28;20046;-68
2021/05/23 12:23:47;;;;;;;4.28;0.65;;;;;;;;;;5008495;28;20046;-68
2021/05/23 12:26:17;;;;;;;1.02;0.93;;;;;;;;;;5001600;28;20105;-70
2021/05/23 12:28:48;;;;;;;1.92;0.93;;;;;;;;;;5008364;28;20034;-70
2021/05/23 12:31:17;;;;;;;1.65;0.70;;;;;;;;;;5010267;28;20050;-70
2021/05/23 12:33:52;;;;;;;1.23;0.60;;;;;;;;;;5016772;28;20050;-70
2021/05/23 12:36:19;;;;;;;2.63;0.70;;;;;;;;;;5003939;28;20046;-70
2021/05/23 12:39:08;;;;;;;0.73;0.50;;;;;;;;;;5005778;28;20149;-68
2021/05/23 12:41:45;;;;;;;1.90;1.05;;;;;;;;;;4974140;28;20054;-68
2021/05/23 12:44:23;;;;;;;2.55;0.50;;;;;;;;;;4972693;28;20510;-67
2021/05/23 12:46:50;;;;;;;1.58;0.38;;;;;;;;;;4981299;28;20038;-67
2021/05/23 12:49:19;;;;;;;1.35;0.47;;;;;;;;;;4992111;28;20246;-68
2021/05/23 12:51:48;;;;;;;1.08;0.60;;;;;;;;;;4992036;28;20086;-67
2021/05/23 12:54:31;;;;;;;2.33;0.55;;;;;;;;;;4993595;28;20057;-68
2021/05/23 12:57:04;;;;;;;2.58;0.50;;;;;;;;;;5002980;28;20050;-68
2021/05/23 12:59:41;;;;;;;1.17;0.68;;;;;;;;;;4997649;28;20047;-68
2021/05/23 13:02:08;;;;;;;3.72;1.00;;;;;;;;;;4989128;28;20069;-68
2021/05/23 13:04:35;;;;;;;1.42;0.95;;;;;;;;;;5003807;28;20046;-68
2021/05/23 13:07:06;;;;;;;1.20;0.60;;;;;;;;;;5001960;28;20100;-67
2021/05/23 13:09:44;;;;;;;1.70;0.75;;;;;;;;;;4985203;28;20074;-68
2021/05/23 13:12:13;;;;;;;2.60;0.65;;;;;;;;;;4982534;28;20050;-68
2021/05/23 13:15:07;;;;;;;1.33;0.40;;;;;;;;;;4993949;28;20046;-67
2021/05/23 13:17:37;;;;;;;;;;;;;;;;;;4991439;28;20132;-68
2021/05/23 13:20:04;;;;;;;1.83;0.50;;;;;;;;;;4993604;28;19983;-67
2021/05/23 13:22:32;;;;;;;3.38;0.57;;;;;;;;;;4991504;28;20054;-68
2021/05/23 13:25:03;;;;;;;1.70;0.43;;;;;;;;;;4978425;28;20057;-68
2021/05/23 13:27:31;;;;;;;1.38;0.50;;;;;;;;;;4991722;28;20051;-69
2021/05/23 13:29:59;;;;;;;2.35;0.50;;;;;;;;;;4987433;28;20077;-69
2021/05/23 13:32:26;;;;;;;2.88;0.40;;;;;;;;;;4991425;28;20050;-70
2021/05/23 13:34:54;;;;;;;1.30;0.57;;;;;;;;;;5003373;28;20054;-70
2021/05/23 13:37:22;;;;;;;1.60;1.08;;;;;;;;;;5018364;28;20093;-70
2021/05/23 13:39:49;;;;;;;1.27;0.50;;;;;;;;;;4988457;28;20106;-70
2021/05/23 13:42:16;;;;;;;1.65;0.50;;;;;;;;;;4975761;28;20109;-69
2021/05/23 13:44:43;;;;;;;2.50;0.70;;;;;;;;;;4975712;28;20102;-69
2021/05/23 13:47:09;;;;;;;0.75;0.20;;;;;;;;;;4975407;28;20047;-70
2021/05/23 13:49:40;;;;;;;0.98;0.68;;;;;;;;;;4975804;28;20051;-70
2021/05/23 13:52:07;;;;;;;1.05;0.40;;;;;;;;;;4979882;28;20054;-72
2021/05/23 13:54:34;;;;;;;0.85;0.40;;;;;;;;;;4971404;28;20178;-71
2021/05/23 13:57:01;;;;;;;0.73;0.32;;;;;;;;;;5007495;28;20047;-71
2021/05/23 13:59:28;;;;;;;1.95;0.82;;;;;;;;;;5014555;28;20057;-70
2021/05/23 14:01:55;;;;;;;0.50;0.32;;;;;;;;;;5015328;28;20073;-70
2021/05/23 14:04:21;;;;;;;1.58;0.35;;;;;;;;;;5015298;28;20057;-73
2021/05/23 14:06:49;;;;;;;0.90;0.50;;;;;;;;;;5013832;28;20042;-73
2021/05/23 14:09:18;;;;;;;1.27;0.50;;;;;;;;;;5013896;28;20058;-74
2021/05/23 14:11:46;;;;;;;1.40;0.50;;;;;;;;;;5013070;28;20042;-73
2021/05/23 14:14:12;;;;;;;3.10;0.60;;;;;;;;;;4994302;28;20600;-74
2021/05/23 14:16:40;;;;;;;0.60;0.50;;;;;;;;;;4992764;28;20521;-74
2021/05/23 14:19:06;;;;;;;1.15;0.63;;;;;;;;;;5008427;28;20116;-74
2021/05/23 14:21:33;;;;;;;1.83;0.60;;;;;;;;;;4991933;28;20097;-75
2021/05/23 14:24:04;;;;;;;1.50;0.57;;;;;;;;;;4992302;28;20050;-74
2021/05/23 14:26:31;;;;;;;1.27;0.30;;;;;;;;;;4986623;28;20057;-75
2021/05/23 14:28:58;;;;;;;0.63;0.20;;;;;;;;;;4992004;28;20501;-74
2021/05/23 14:31:25;;;;;;;3.47;0.40;;;;;;;;;;4993002;28;20489;-75
2021/05/23 14:33:53;;;;;;;1.30;0.50;;;;;;;;;;4994977;28;20053;-73
2021/05/23 14:36:20;;;;;;;0.75;0.60;;;;;;;;;;4993616;28;20108;-73
2021/05/23 14:38:47;;;;;;;0.70;0.40;;;;;;;;;;4993676;28;20042;-71
2021/05/23 14:41:14;;;;;;;0.75;0.32;;;;;;;;;;4997921;28;20058;-71
2021/05/23 14:43:41;;;;;;;1.52;0.43;;;;;;;;;;4999736;28;20054;-73
2021/05/23 14:46:08;;;;;;;0.65;0.40;;;;;;;;;;4993896;28;20050;-74
2021/05/23 14:48:36;;;;;;;1.30;0.60;;;;;;;;;;4976132;28;20050;-70
2021/05/23 14:51:04;;;;;;;1.38;0.85;;;;;;;;;;4995649;28;20058;-69